Sunflower Satsuma — JG5189 — position and weather

sailwx.info

Track history (hours):
 
Tides and Currents Weather Stations Pressure Air Temp Water Temp Dewpoint Dewpoint Depression Visibility Wind Speed Wind Dir Waves Ship Positions

Sunflower Satsuma

Last reported at 2018-Feb-21 22:51 UTC. Time now 2018-Feb-22 04:44 UTC.
Position N 34°38' E 135°24'.

Length 186 m; draft 6.4 m.

Type: Passenger vessel. MMSI: 431319000.

Date/timePositionNaut miles runAvg speedWind from/ knotsBaromVisibWave heightAir tempDewpointWater temp
2018-Feb-21 22:51N 34°38' E 135°24'3 9.9
2018-Feb-21 22:30N 34°36' E 135°21'1221.3
2018-Feb-21 21:58N 34°28' E 135°11'1022.1
2018-Feb-21 21:30N 34°20' E 135°03'1020.6
2018-Feb-21 21:00N 34°11' E 134°58'4 0.1
2018-Feb-20 11:00N 34°07' E 134°56'1121.7
2018-Feb-20 10:30N 34°18' E 134°59'1020.1
2018-Feb-20 10:00N 34°26' E 135°06'1121.5
2018-Feb-20 09:30N 34°33' E 135°16'917.0
2018-Feb-20 09:00N 34°38' E 135°24'0 0.0
2018-Feb-20 08:30N 34°38' E 135°24'0 0.0
2018-Feb-20 07:58N 34°38' E 135°24'0 0.0
2018-Feb-20 07:28N 34°38' E 135°24'0 0.0
2018-Feb-20 06:58N 34°38' E 135°24'0 0.0
2018-Feb-20 06:28N 34°38' E 135°24'0 0.0
2018-Feb-20 05:58N 34°38' E 135°24'0 0.0
2018-Feb-20 05:28N 34°38' E 135°24'0 0.0
2018-Feb-20 04:58N 34°38' E 135°24'0 0.0
2018-Feb-20 04:28N 34°38' E 135°24'0 0.0
2018-Feb-20 03:58N 34°38' E 135°24'0 0.0
2018-Feb-20 03:28N 34°38' E 135°24'0 0.0
2018-Feb-20 02:58N 34°38' E 135°24'0 0.0
2018-Feb-20 02:28N 34°38' E 135°24'0 0.0
2018-Feb-20 01:58N 34°38' E 135°24'0 0.0
2018-Feb-20 01:28N 34°38' E 135°24'0 0.0
2018-Feb-20 00:52N 34°38' E 135°24'0 0.0
2018-Feb-20 00:28N 34°38' E 135°24'0 0.0
2018-Feb-19 23:58N 34°38' E 135°24'0 0.0
2018-Feb-19 23:28N 34°38' E 135°24'0 0.0
2018-Feb-19 23:00N 34°38' E 135°24'4 7.4
2018-Feb-19 22:30N 34°36' E 135°21'1121.7
2018-Feb-19 22:00N 34°29' E 135°11'1122.4
2018-Feb-19 21:30N 34°21' E 135°02'1121.5
2018-Feb-19 21:00N 34°10' E 134°57'20 0.6
2018-Feb-18 10:48N 33°51' E 134°51'621.3
2018-Feb-18 10:30N 33°57' E 134°53'1121.2
2018-Feb-18 10:00N 34°08' E 134°56'1021.3
2018-Feb-18 09:30N 34°18' E 134°59'1020.4
2018-Feb-18 09:00N 34°26' E 135°06'1121.0
2018-Feb-18 08:30N 34°33' E 135°16'917.4
2018-Feb-18 08:00N 34°38' E 135°24'0 0.2
2018-Feb-18 07:31N 34°38' E 135°24'0 0.0
2018-Feb-18 07:00N 34°38' E 135°24'0 0.0
2018-Feb-18 06:30N 34°38' E 135°24'0 0.0
2018-Feb-18 06:00N 34°38' E 135°24'0 0.0
2018-Feb-18 05:30N 34°38' E 135°24'0 0.0
2018-Feb-18 05:00N 34°38' E 135°24'0 0.0
2018-Feb-18 04:30N 34°38' E 135°24'0 0.0
2018-Feb-18 04:00N 34°38' E 135°24'0 0.0
2018-Feb-18 03:30N 34°38' E 135°24'0 0.0
2018-Feb-18 03:00N 34°38' E 135°24'0 0.0
2018-Feb-18 02:30N 34°38' E 135°24'0 0.0
2018-Feb-18 02:00N 34°38' E 135°24'0 0.0
2018-Feb-18 01:30N 34°38' E 135°24'0 0.0
2018-Feb-18 01:00N 34°38' E 135°24'0 0.0
2018-Feb-18 00:30N 34°38' E 135°24'0 0.0
2018-Feb-18 00:00N 34°38' E 135°24'1 1.3
2018-Feb-17 23:31N 34°38' E 135°24'918.9
2018-Feb-17 23:00N 34°32' E 135°15'1121.4
2018-Feb-17 22:30N 34°24' E 135°06'1121.8
2018-Feb-17 22:01N 34°15' E 134°59'1121.6
2018-Feb-17 21:30N 34°04' E 134°57'2021.3
2018-Feb-17 20:34N 33°46' E 134°47'3 0.1
2018-Feb-16 12:01N 33°44' E 134°44'024.9
2018-Feb-16 12:00N 33°44' E 134°44'1622.2
2018-Feb-16 11:18N 33°58' E 134°53'722.3
2018-Feb-16 11:00N 34°04' E 134°55'1122.3
2018-Feb-16 10:30N 34°15' E 134°58'1020.9
2018-Feb-16 10:00N 34°24' E 135°04'1122.4
2018-Feb-16 09:31N 34°31' E 135°14'1019.6
2018-Feb-16 09:01N 34°38' E 135°24'1 1.5
2018-Feb-16 08:26N 34°38' E 135°24'0 0.0
2018-Feb-16 07:59N 34°38' E 135°24'0 0.0
2018-Feb-16 07:26N 34°38' E 135°24'0 0.0
2018-Feb-16 06:56N 34°38' E 135°24'0 0.0
2018-Feb-16 06:29N 34°38' E 135°24'0 0.0
2018-Feb-16 05:59N 34°38' E 135°24'0 0.0
2018-Feb-16 05:29N 34°38' E 135°24'0 0.0
2018-Feb-16 04:50N 34°38' E 135°24'0 0.0
2018-Feb-16 04:26N 34°38' E 135°24'0 0.0
2018-Feb-16 03:56N 34°38' E 135°24'0 0.0
2018-Feb-16 03:26N 34°38' E 135°24'0 0.0
2018-Feb-16 02:53N 34°38' E 135°24'0 0.0
2018-Feb-16 02:26N 34°38' E 135°24'0 0.0
2018-Feb-16 01:56N 34°38' E 135°24'0 0.0
2018-Feb-16 01:29N 34°38' E 135°24'0 0.0
2018-Feb-16 00:56N 34°38' E 135°24'0 0.0
2018-Feb-16 00:20N 34°38' E 135°24'0 0.0
2018-Feb-15 23:59N 34°38' E 135°24'0 0.0
2018-Feb-15 23:29N 34°38' E 135°24'0 0.0
2018-Feb-15 23:00N 34°38' E 135°24'4 7.8
2018-Feb-15 22:31N 34°36' E 135°20'1122.0
2018-Feb-15 22:01N 34°29' E 135°11'1223.2
2018-Feb-15 21:31N 34°20' E 135°02'1121.8
2018-Feb-15 21:01N 34°09' E 134°59'1322.6
2018-Feb-15 20:25N 33°57' E 134°54'16 0.5
2018-Feb-14 12:08N 33°43' E 134°44'422.7
2018-Feb-14 11:57N 33°46' E 134°47'1022.1
2018-Feb-14 11:30N 33°55' E 134°52'1122.5
2018-Feb-14 11:01N 34°06' E 134°55'1122.3
2018-Feb-14 10:31N 34°16' E 134°58'1121.0
2018-Feb-14 10:00N 34°25' E 135°05'1122.2
2018-Feb-14 09:30N 34°33' E 135°16'917.8
2018-Feb-14 09:00N 34°38' E 135°24'0 0.7
2018-Feb-14 08:30N 34°38' E 135°24'0 0.0
2018-Feb-14 08:00N 34°38' E 135°24'0 0.0
2018-Feb-14 07:30N 34°38' E 135°24'0 0.0
2018-Feb-14 07:00N 34°38' E 135°24'0 0.0
2018-Feb-14 06:30N 34°38' E 135°24'0 0.0
2018-Feb-14 06:00N 34°38' E 135°24'0 0.0
2018-Feb-14 05:30N 34°38' E 135°24'0 0.0
2018-Feb-14 05:00N 34°38' E 135°24'0 0.0
2018-Feb-14 04:30N 34°38' E 135°24'0 0.0
2018-Feb-14 04:00N 34°38' E 135°24'0 0.0
2018-Feb-14 03:30N 34°38' E 135°24'0 0.0
2018-Feb-14 03:00N 34°38' E 135°24'0 0.0
2018-Feb-14 02:30N 34°38' E 135°24'0 0.0
2018-Feb-14 02:00N 34°38' E 135°24'0 0.0
2018-Feb-14 01:30N 34°38' E 135°24'0 0.0
2018-Feb-14 01:00N 34°38' E 135°24'0 0.0
2018-Feb-14 00:30N 34°38' E 135°24'0 0.0
2018-Feb-14 00:00N 34°38' E 135°24'0 0.0
2018-Feb-13 23:30N 34°38' E 135°24'0 0.0
2018-Feb-13 23:00N 34°38' E 135°24'0 0.3
2018-Feb-13 22:30N 34°38' E 135°24'713.0
2018-Feb-13 22:00N 34°35' E 135°18'1122.1
2018-Feb-13 21:30N 34°27' E 135°08'1223.1
2018-Feb-13 21:01N 34°18' E 134°59'1223.0
2018-Feb-13 20:30N 34°07' E 134°56'1122.6
2018-Feb-13 20:00N 33°56' E 134°52'13 0.4
2018-Feb-12 12:00N 33°45' E 134°45'1222.7
2018-Feb-12 11:27N 33°54' E 134°54'1022.4
2018-Feb-12 11:00N 34°04' E 134°55'1122.6
2018-Feb-12 10:31N 34°15' E 134°58'1121.5
2018-Feb-12 10:00N 34°24' E 135°04'1122.3
2018-Feb-12 09:30N 34°32' E 135°14'1019.3
2018-Feb-12 09:00N 34°38' E 135°24'1 1.5
2018-Feb-12 08:30N 34°38' E 135°24'0 0.0
2018-Feb-12 08:00N 34°38' E 135°24'0 0.0
2018-Feb-12 07:30N 34°38' E 135°24'0 0.0
2018-Feb-12 07:00N 34°38' E 135°24'0 0.0
2018-Feb-12 06:30N 34°38' E 135°24'0 0.0
2018-Feb-12 06:00N 34°38' E 135°24'0 0.0
2018-Feb-12 05:30N 34°38' E 135°24'0 0.0
2018-Feb-12 05:00N 34°38' E 135°24'0 0.0
2018-Feb-12 04:30N 34°38' E 135°24'0 0.0
2018-Feb-12 04:00N 34°38' E 135°24'0 0.0
2018-Feb-12 03:30N 34°38' E 135°24'0 0.0
2018-Feb-12 03:00N 34°38' E 135°24'0 0.0
2018-Feb-12 02:30N 34°38' E 135°24'0 0.0
2018-Feb-12 02:00N 34°38' E 135°24'0 0.0
2018-Feb-12 01:30N 34°38' E 135°24'0 0.0
2018-Feb-12 01:00N 34°38' E 135°24'0 0.0
2018-Feb-12 00:30N 34°38' E 135°24'0 0.0
2018-Feb-12 00:00N 34°38' E 135°24'0 0.0
2018-Feb-11 23:30N 34°38' E 135°24'0 0.0
2018-Feb-11 23:00N 34°38' E 135°24'  
Track history (hours):
 
Tides and Currents Weather Stations Pressure Air Temp Water Temp Dewpoint Dewpoint Depression Visibility Wind Speed Wind Dir Waves Ship Positions

Sunflower Satsuma

Last reported at 2018-Feb-21 22:51 UTC. Time now 2018-Feb-22 04:44 UTC.
Position N 34°38' E 135°24'.

Length 186 m; draft 6.4 m.

Type: Passenger vessel. MMSI: 431319000.

Date/timePositionNaut miles runAvg speedWind from/ knotsBaromVisibWave heightAir tempDewpointWater temp
2018-Feb-21 22:51N 34°38' E 135°24'3 9.9
2018-Feb-21 22:30N 34°36' E 135°21'1221.3
2018-Feb-21 21:58N 34°28' E 135°11'1022.1
2018-Feb-21 21:30N 34°20' E 135°03'1020.6
2018-Feb-21 21:00N 34°11' E 134°58'4 0.1
2018-Feb-20 11:00N 34°07' E 134°56'1121.7
2018-Feb-20 10:30N 34°18' E 134°59'1020.1
2018-Feb-20 10:00N 34°26' E 135°06'1121.5
2018-Feb-20 09:30N 34°33' E 135°16'917.0
2018-Feb-20 09:00N 34°38' E 135°24'0 0.0
2018-Feb-20 08:30N 34°38' E 135°24'0 0.0
2018-Feb-20 07:58N 34°38' E 135°24'0 0.0
2018-Feb-20 07:28N 34°38' E 135°24'0 0.0
2018-Feb-20 06:58N 34°38' E 135°24'0 0.0
2018-Feb-20 06:28N 34°38' E 135°24'0 0.0
2018-Feb-20 05:58N 34°38' E 135°24'0 0.0
2018-Feb-20 05:28N 34°38' E 135°24'0 0.0
2018-Feb-20 04:58N 34°38' E 135°24'0 0.0
2018-Feb-20 04:28N 34°38' E 135°24'0 0.0
2018-Feb-20 03:58N 34°38' E 135°24'0 0.0
2018-Feb-20 03:28N 34°38' E 135°24'0 0.0
2018-Feb-20 02:58N 34°38' E 135°24'0 0.0
2018-Feb-20 02:28N 34°38' E 135°24'0 0.0
2018-Feb-20 01:58N 34°38' E 135°24'0 0.0
2018-Feb-20 01:28N 34°38' E 135°24'0 0.0
2018-Feb-20 00:52N 34°38' E 135°24'0 0.0
2018-Feb-20 00:28N 34°38' E 135°24'0 0.0
2018-Feb-19 23:58N 34°38' E 135°24'0 0.0
2018-Feb-19 23:28N 34°38' E 135°24'0 0.0
2018-Feb-19 23:00N 34°38' E 135°24'4 7.4
2018-Feb-19 22:30N 34°36' E 135°21'1121.7
2018-Feb-19 22:00N 34°29' E 135°11'1122.4
2018-Feb-19 21:30N 34°21' E 135°02'1121.5
2018-Feb-19 21:00N 34°10' E 134°57'20 0.6
2018-Feb-18 10:48N 33°51' E 134°51'621.3
2018-Feb-18 10:30N 33°57' E 134°53'1121.2
2018-Feb-18 10:00N 34°08' E 134°56'1021.3
2018-Feb-18 09:30N 34°18' E 134°59'1020.4
2018-Feb-18 09:00N 34°26' E 135°06'1121.0
2018-Feb-18 08:30N 34°33' E 135°16'917.4
2018-Feb-18 08:00N 34°38' E 135°24'0 0.2
2018-Feb-18 07:31N 34°38' E 135°24'0 0.0
2018-Feb-18 07:00N 34°38' E 135°24'0 0.0
2018-Feb-18 06:30N 34°38' E 135°24'0 0.0
2018-Feb-18 06:00N 34°38' E 135°24'0 0.0
2018-Feb-18 05:30N 34°38' E 135°24'0 0.0
2018-Feb-18 05:00N 34°38' E 135°24'0 0.0
2018-Feb-18 04:30N 34°38' E 135°24'0 0.0
2018-Feb-18 04:00N 34°38' E 135°24'0 0.0
2018-Feb-18 03:30N 34°38' E 135°24'0 0.0
2018-Feb-18 03:00N 34°38' E 135°24'0 0.0
2018-Feb-18 02:30N 34°38' E 135°24'0 0.0
2018-Feb-18 02:00N 34°38' E 135°24'0 0.0
2018-Feb-18 01:30N 34°38' E 135°24'0 0.0
2018-Feb-18 01:00N 34°38' E 135°24'0 0.0
2018-Feb-18 00:30N 34°38' E 135°24'0 0.0
2018-Feb-18 00:00N 34°38' E 135°24'1 1.3
2018-Feb-17 23:31N 34°38' E 135°24'918.9
2018-Feb-17 23:00N 34°32' E 135°15'1121.4
2018-Feb-17 22:30N 34°24' E 135°06'1121.8
2018-Feb-17 22:01N 34°15' E 134°59'1121.6
2018-Feb-17 21:30N 34°04' E 134°57'2021.3
2018-Feb-17 20:34N 33°46' E 134°47'3 0.1
2018-Feb-16 12:01N 33°44' E 134°44'024.9
2018-Feb-16 12:00N 33°44' E 134°44'1622.2
2018-Feb-16 11:18N 33°58' E 134°53'722.3
2018-Feb-16 11:00N 34°04' E 134°55'1122.3
2018-Feb-16 10:30N 34°15' E 134°58'1020.9
2018-Feb-16 10:00N 34°24' E 135°04'1122.4
2018-Feb-16 09:31N 34°31' E 135°14'1019.6
2018-Feb-16 09:01N 34°38' E 135°24'1 1.5
2018-Feb-16 08:26N 34°38' E 135°24'0 0.0
2018-Feb-16 07:59N 34°38' E 135°24'0 0.0
2018-Feb-16 07:26N 34°38' E 135°24'0 0.0
2018-Feb-16 06:56N 34°38' E 135°24'0 0.0
2018-Feb-16 06:29N 34°38' E 135°24'0 0.0
2018-Feb-16 05:59N 34°38' E 135°24'0 0.0
2018-Feb-16 05:29N 34°38' E 135°24'0 0.0
2018-Feb-16 04:50N 34°38' E 135°24'0 0.0
2018-Feb-16 04:26N 34°38' E 135°24'0 0.0
2018-Feb-16 03:56N 34°38' E 135°24'0 0.0
2018-Feb-16 03:26N 34°38' E 135°24'0 0.0
2018-Feb-16 02:53N 34°38' E 135°24'0 0.0
2018-Feb-16 02:26N 34°38' E 135°24'0 0.0
2018-Feb-16 01:56N 34°38' E 135°24'0 0.0
2018-Feb-16 01:29N 34°38' E 135°24'0 0.0
2018-Feb-16 00:56N 34°38' E 135°24'0 0.0
2018-Feb-16 00:20N 34°38' E 135°24'0 0.0
2018-Feb-15 23:59N 34°38' E 135°24'0 0.0
2018-Feb-15 23:29N 34°38' E 135°24'0 0.0
2018-Feb-15 23:00N 34°38' E 135°24'4 7.8
2018-Feb-15 22:31N 34°36' E 135°20'1122.0
2018-Feb-15 22:01N 34°29' E 135°11'1223.2
2018-Feb-15 21:31N 34°20' E 135°02'1121.8
2018-Feb-15 21:01N 34°09' E 134°59'1322.6
2018-Feb-15 20:25N 33°57' E 134°54'16 0.5
2018-Feb-14 12:08N 33°43' E 134°44'422.7
2018-Feb-14 11:57N 33°46' E 134°47'1022.1
2018-Feb-14 11:30N 33°55' E 134°52'1122.5
2018-Feb-14 11:01N 34°06' E 134°55'1122.3
2018-Feb-14 10:31N 34°16' E 134°58'1121.0
2018-Feb-14 10:00N 34°25' E 135°05'1122.2
2018-Feb-14 09:30N 34°33' E 135°16'917.8
2018-Feb-14 09:00N 34°38' E 135°24'0 0.7
2018-Feb-14 08:30N 34°38' E 135°24'0 0.0
2018-Feb-14 08:00N 34°38' E 135°24'0 0.0
2018-Feb-14 07:30N 34°38' E 135°24'0 0.0
2018-Feb-14 07:00N 34°38' E 135°24'0 0.0
2018-Feb-14 06:30N 34°38' E 135°24'0 0.0
2018-Feb-14 06:00N 34°38' E 135°24'0 0.0
2018-Feb-14 05:30N 34°38' E 135°24'0 0.0
2018-Feb-14 05:00N 34°38' E 135°24'0 0.0
2018-Feb-14 04:30N 34°38' E 135°24'0 0.0
2018-Feb-14 04:00N 34°38' E 135°24'0 0.0
2018-Feb-14 03:30N 34°38' E 135°24'0 0.0
2018-Feb-14 03:00N 34°38' E 135°24'0 0.0
2018-Feb-14 02:30N 34°38' E 135°24'0 0.0
2018-Feb-14 02:00N 34°38' E 135°24'0 0.0
2018-Feb-14 01:30N 34°38' E 135°24'0 0.0
2018-Feb-14 01:00N 34°38' E 135°24'0 0.0
2018-Feb-14 00:30N 34°38' E 135°24'0 0.0
2018-Feb-14 00:00N 34°38' E 135°24'0 0.0
2018-Feb-13 23:30N 34°38' E 135°24'0 0.0
2018-Feb-13 23:00N 34°38' E 135°24'0 0.3
2018-Feb-13 22:30N 34°38' E 135°24'713.0
2018-Feb-13 22:00N 34°35' E 135°18'1122.1
2018-Feb-13 21:30N 34°27' E 135°08'1223.1
2018-Feb-13 21:01N 34°18' E 134°59'1223.0
2018-Feb-13 20:30N 34°07' E 134°56'1122.6
2018-Feb-13 20:00N 33°56' E 134°52'13 0.4
2018-Feb-12 12:00N 33°45' E 134°45'1222.7
2018-Feb-12 11:27N 33°54' E 134°54'1022.4
2018-Feb-12 11:00N 34°04' E 134°55'1122.6
2018-Feb-12 10:31N 34°15' E 134°58'1121.5
2018-Feb-12 10:00N 34°24' E 135°04'1122.3
2018-Feb-12 09:30N 34°32' E 135°14'1019.3
2018-Feb-12 09:00N 34°38' E 135°24'1 1.5
2018-Feb-12 08:30N 34°38' E 135°24'0 0.0
2018-Feb-12 08:00N 34°38' E 135°24'0 0.0
2018-Feb-12 07:30N 34°38' E 135°24'0 0.0
2018-Feb-12 07:00N 34°38' E 135°24'0 0.0
2018-Feb-12 06:30N 34°38' E 135°24'0 0.0
2018-Feb-12 06:00N 34°38' E 135°24'0 0.0
2018-Feb-12 05:30N 34°38' E 135°24'0 0.0
2018-Feb-12 05:00N 34°38' E 135°24'0 0.0
2018-Feb-12 04:30N 34°38' E 135°24'0 0.0
2018-Feb-12 04:00N 34°38' E 135°24'0 0.0
2018-Feb-12 03:30N 34°38' E 135°24'0 0.0
2018-Feb-12 03:00N 34°38' E 135°24'0 0.0
2018-Feb-12 02:30N 34°38' E 135°24'0 0.0
2018-Feb-12 02:00N 34°38' E 135°24'0 0.0
2018-Feb-12 01:30N 34°38' E 135°24'0 0.0
2018-Feb-12 01:00N 34°38' E 135°24'0 0.0
2018-Feb-12 00:30N 34°38' E 135°24'0 0.0
2018-Feb-12 00:00N 34°38' E 135°24'0 0.0
2018-Feb-11 23:30N 34°38' E 135°24'0 0.0
2018-Feb-11 23:00N 34°38' E 135°24'  

Dump ship's entire track history